sensor_id;sensor_type;location;lat;lon;timestamp;pressure;altitude;pressure_sealevel;temperature;humidity
61474;BME280;53694;49.784;30.150;2023-02-18T00:00:40;99179.08;;;5.16;72.25
61474;BME280;53694;49.784;30.150;2023-02-18T00:01:41;99177.72;;;5.22;72.32
61474;BME280;53694;49.784;30.150;2023-02-18T00:02:44;99181.04;;;5.28;72.13
61474;BME280;53694;49.784;30.150;2023-02-18T00:03:46;99168.78;;;5.34;71.98
61474;BME280;53694;49.784;30.150;2023-02-18T00:04:47;99161.19;;;5.39;71.90
61474;BME280;53694;49.784;30.150;2023-02-18T00:05:49;99170.27;;;5.43;71.45
61474;BME280;53694;49.784;30.150;2023-02-18T00:06:51;99171.66;;;5.49;71.55
61474;BME280;53694;49.784;30.150;2023-02-18T00:07:53;99173.72;;;5.53;71.05
61474;BME280;53694;49.784;30.150;2023-02-18T00:08:55;99168.71;;;5.55;70.86
61474;BME280;53694;49.784;30.150;2023-02-18T00:09:56;99164.84;;;5.56;71.16
61474;BME280;53694;49.784;30.150;2023-02-18T00:10:58;99159.20;;;5.61;71.05
61474;BME280;53694;49.784;30.150;2023-02-18T00:11:59;99151.91;;;5.65;70.90
61474;BME280;53694;49.784;30.150;2023-02-18T00:13:01;99157.70;;;5.63;70.60
61474;BME280;53694;49.784;30.150;2023-02-18T00:14:05;99162.80;;;5.65;70.72
61474;BME280;53694;49.784;30.150;2023-02-18T00:15:08;99141.36;;;5.63;70.60
61474;BME280;53694;49.784;30.150;2023-02-18T00:16:11;99143.30;;;5.63;70.97
61474;BME280;53694;49.784;30.150;2023-02-18T00:17:12;99130.81;;;5.62;70.74
61474;BME280;53694;49.784;30.150;2023-02-18T00:18:14;99141.71;;;5.62;70.80
61474;BME280;53694;49.784;30.150;2023-02-18T00:19:17;99135.23;;;5.54;70.78
61474;BME280;53694;49.784;30.150;2023-02-18T00:20:19;99128.52;;;5.51;71.18
61474;BME280;53694;49.784;30.150;2023-02-18T00:21:21;99127.41;;;5.53;71.18
61474;BME280;53694;49.784;30.150;2023-02-18T00:22:23;99120.35;;;5.51;71.34
61474;BME280;53694;49.784;30.150;2023-02-18T00:23:25;99116.95;;;5.55;71.38
61474;BME280;53694;49.784;30.150;2023-02-18T00:24:26;99113.45;;;5.54;71.23
61474;BME280;53694;49.784;30.150;2023-02-18T00:25:28;99113.09;;;5.56;71.42
61474;BME280;53694;49.784;30.150;2023-02-18T00:26:30;99105.83;;;5.60;71.40
61474;BME280;53694;49.784;30.150;2023-02-18T00:27:32;99097.77;;;5.63;71.36
61474;BME280;53694;49.784;30.150;2023-02-18T00:28:33;99102.88;;;5.65;71.15
61474;BME280;53694;49.784;30.150;2023-02-18T00:29:35;99105.27;;;5.66;71.17
61474;BME280;53694;49.784;30.150;2023-02-18T00:30:41;99088.14;;;5.66;71.00
61474;BME280;53694;49.784;30.150;2023-02-18T00:31:43;99083.02;;;5.64;70.99
61474;BME280;53694;49.784;30.150;2023-02-18T00:32:44;99082.69;;;5.66;71.23
61474;BME280;53694;49.784;30.150;2023-02-18T00:33:46;99081.08;;;5.65;71.14
61474;BME280;53694;49.784;30.150;2023-02-18T00:34:47;99075.62;;;5.65;71.11
61474;BME280;53694;49.784;30.150;2023-02-18T00:35:49;99074.05;;;5.64;71.07
61474;BME280;53694;49.784;30.150;2023-02-18T00:36:51;99068.60;;;5.64;71.21
61474;BME280;53694;49.784;30.150;2023-02-18T00:37:52;99071.33;;;5.64;71.17
61474;BME280;53694;49.784;30.150;2023-02-18T00:38:57;99067.81;;;5.63;71.13
61474;BME280;53694;49.784;30.150;2023-02-18T00:39:59;99068.48;;;5.60;71.27
61474;BME280;53694;49.784;30.150;2023-02-18T00:41:01;99069.31;;;5.61;71.36
61474;BME280;53694;49.784;30.150;2023-02-18T00:42:03;99059.52;;;5.60;71.14
61474;BME280;53694;49.784;30.150;2023-02-18T00:43:05;99056.36;;;5.58;71.33
61474;BME280;53694;49.784;30.150;2023-02-18T00:44:07;99050.13;;;5.57;71.61
61474;BME280;53694;49.784;30.150;2023-02-18T00:45:08;99054.87;;;5.60;71.72
61474;BME280;53694;49.784;30.150;2023-02-18T00:46:10;99051.82;;;5.62;71.58
61474;BME280;53694;49.784;30.150;2023-02-18T00:47:12;99047.52;;;5.61;71.35
61474;BME280;53694;49.784;30.150;2023-02-18T00:48:13;99048.30;;;5.61;71.59
61474;BME280;53694;49.784;30.150;2023-02-18T00:49:15;99044.80;;;5.61;71.52
61474;BME280;53694;49.784;30.150;2023-02-18T00:50:18;99042.50;;;5.63;71.45
61474;BME280;53694;49.784;30.150;2023-02-18T00:51:20;99039.42;;;5.64;71.53
61474;BME280;53694;49.784;30.150;2023-02-18T00:52:21;99030.47;;;5.64;71.49
61474;BME280;53694;49.784;30.150;2023-02-18T00:53:23;99026.95;;;5.63;71.49
61474;BME280;53694;49.784;30.150;2023-02-18T00:54:24;99023.44;;;5.63;71.54
61474;BME280;53694;49.784;30.150;2023-02-18T00:55:26;99018.78;;;5.63;71.50
61474;BME280;53694;49.784;30.150;2023-02-18T00:56:28;99016.84;;;5.64;71.68
61474;BME280;53694;49.784;30.150;2023-02-18T00:57:29;99012.19;;;5.64;71.32
61474;BME280;53694;49.784;30.150;2023-02-18T00:58:32;99011.28;;;5.60;71.13
61474;BME280;53694;49.784;30.150;2023-02-18T00:59:34;99007.33;;;5.58;71.52
61474;BME280;53694;49.784;30.150;2023-02-18T01:00:36;99005.75;;;5.57;71.78
61474;BME280;53694;49.784;30.150;2023-02-18T01:01:38;99010.05;;;5.58;71.76
61474;BME280;53694;49.784;30.150;2023-02-18T01:02:40;98999.16;;;5.58;71.79
61474;BME280;53694;49.784;30.150;2023-02-18T01:03:41;99001.53;;;5.59;71.89
61474;BME280;53694;49.784;30.150;2023-02-18T01:04:43;98987.59;;;5.61;71.90
61474;BME280;53694;49.784;30.150;2023-02-18T01:05:45;98995.41;;;5.62;71.88
61474;BME280;53694;49.784;30.150;2023-02-18T01:06:46;98995.52;;;5.66;71.78
61474;BME280;53694;49.784;30.150;2023-02-18T01:07:48;98990.18;;;5.69;71.81
61474;BME280;53694;49.784;30.150;2023-02-18T01:08:49;98990.18;;;5.69;71.44
61474;BME280;53694;49.784;30.150;2023-02-18T01:09:51;98986.87;;;5.64;71.39
61474;BME280;53694;49.784;30.150;2023-02-18T01:10:55;98990.75;;;5.63;71.68
61474;BME280;53694;49.784;30.150;2023-02-18T01:11:57;98985.30;;;5.63;71.71
61474;BME280;53694;49.784;30.150;2023-02-18T01:12:59;98991.42;;;5.60;71.78
61474;BME280;53694;49.784;30.150;2023-02-18T01:14:01;98979.63;;;5.56;71.91
61474;BME280;53694;49.784;30.150;2023-02-18T01:15:04;98963.64;;;5.54;72.09
61474;BME280;53694;49.784;30.150;2023-02-18T01:16:07;98967.83;;;5.51;71.96
61474;BME280;53694;49.784;30.150;2023-02-18T01:17:09;98964.20;;;5.47;72.21
61474;BME280;53694;49.784;30.150;2023-02-18T01:18:11;98968.19;;;5.50;72.72
61474;BME280;53694;49.784;30.150;2023-02-18T01:19:13;98970.13;;;5.49;72.59
61474;BME280;53694;49.784;30.150;2023-02-18T01:20:16;98956.03;;;5.47;72.64
61474;BME280;53694;49.784;30.150;2023-02-18T01:21:18;98961.48;;;5.47;72.73
61474;BME280;53694;49.784;30.150;2023-02-18T01:22:20;98959.23;;;5.49;72.88
61474;BME280;53694;49.784;30.150;2023-02-18T01:23:22;98947.19;;;5.50;72.80
61474;BME280;53694;49.784;30.150;2023-02-18T01:24:24;98949.91;;;5.50;72.90
61474;BME280;53694;49.784;30.150;2023-02-18T01:25:26;98952.28;;;5.52;72.85
61474;BME280;53694;49.784;30.150;2023-02-18T01:26:27;98947.66;;;5.53;72.69
61474;BME280;53694;49.784;30.150;2023-02-18T01:27:29;98942.89;;;5.49;72.71
61474;BME280;53694;49.784;30.150;2023-02-18T01:28:30;98932.78;;;5.50;72.81
61474;BME280;53694;49.784;30.150;2023-02-18T01:29:32;98937.80;;;5.48;72.73
61474;BME280;53694;49.784;30.150;2023-02-18T01:30:33;98932.67;;;5.46;72.94
61474;BME280;53694;49.784;30.150;2023-02-18T01:31:35;98935.39;;;5.46;72.96
61474;BME280;53694;49.784;30.150;2023-02-18T01:32:37;98929.52;;;5.44;72.96
61474;BME280;53694;49.784;30.150;2023-02-18T01:33:38;98928.02;;;5.47;73.28
61474;BME280;53694;49.784;30.150;2023-02-18T01:34:40;98923.83;;;5.49;73.12
61474;BME280;53694;49.784;30.150;2023-02-18T01:35:42;98914.08;;;5.48;72.88
61474;BME280;53694;49.784;30.150;2023-02-18T01:36:43;98915.55;;;5.46;72.80
61474;BME280;53694;49.784;30.150;2023-02-18T01:37:46;98918.16;;;5.42;72.82
61474;BME280;53694;49.784;30.150;2023-02-18T01:38:47;98903.64;;;5.38;73.08
61474;BME280;53694;49.784;30.150;2023-02-18T01:39:49;98904.35;;;5.35;73.29
61474;BME280;53694;49.784;30.150;2023-02-18T01:40:51;98898.44;;;5.33;73.38
61474;BME280;53694;49.784;30.150;2023-02-18T01:41:53;98900.48;;;5.36;73.66
61474;BME280;53694;49.784;30.150;2023-02-18T01:42:54;98894.93;;;5.33;72.97
61474;BME280;53694;49.784;30.150;2023-02-18T01:46:39;98886.41;;;5.34;73.17
61474;BME280;53694;49.784;30.150;2023-02-18T01:47:41;98870.42;;;5.33;73.03
61474;BME280;53694;49.784;30.150;2023-02-18T01:49:52;98870.78;;;5.31;73.14
61474;BME280;53694;49.784;30.150;2023-02-18T01:51:04;98880.53;;;5.32;73.13
61474;BME280;53694;49.784;30.150;2023-02-18T01:52:08;98870.07;;;5.34;73.22
61474;BME280;53694;49.784;30.150;2023-02-18T01:53:16;98866.67;;;5.37;73.16
61474;BME280;53694;49.784;30.150;2023-02-18T01:55:30;98868.00;;;5.43;72.90
61474;BME280;53694;49.784;30.150;2023-02-18T01:58:00;98860.29;;;5.45;72.68
61474;BME280;53694;49.784;30.150;2023-02-18T01:59:05;98853.95;;;5.41;72.47
61474;BME280;53694;49.784;30.150;2023-02-18T02:00:11;98855.88;;;5.41;72.43
61474;BME280;53694;49.784;30.150;2023-02-18T02:01:13;98852.38;;;5.40;72.59
61474;BME280;53694;49.784;30.150;2023-02-18T02:02:20;98839.08;;;5.39;72.46
61474;BME280;53694;49.784;30.150;2023-02-18T02:03:20;98842.16;;;5.37;72.79
61474;BME280;53694;49.784;30.150;2023-02-18T02:04:22;98831.16;;;5.34;72.41
61474;BME280;53694;49.784;30.150;2023-02-18T02:05:23;98831.06;;;5.30;72.55
61474;BME280;53694;49.784;30.150;2023-02-18T02:06:27;98832.56;;;5.28;72.59
61474;BME280;53694;49.784;30.150;2023-02-18T02:07:29;98839.48;;;5.25;72.82
61474;BME280;53694;49.784;30.150;2023-02-18T02:08:30;98830.52;;;5.24;73.02
61474;BME280;53694;49.784;30.150;2023-02-18T02:09:33;98825.86;;;5.25;72.93
61474;BME280;53694;49.784;30.150;2023-02-18T02:13:25;98814.58;;;5.11;73.00
61474;BME280;53694;49.784;30.150;2023-02-18T02:14:27;98819.13;;;5.07;73.16
61474;BME280;53694;49.784;30.150;2023-02-18T02:17:03;98809.02;;;5.07;73.32
61474;BME280;53694;49.784;30.150;2023-02-18T02:22:03;98801.41;;;5.13;73.19
61474;BME280;53694;49.784;30.150;2023-02-18T02:22:39;98792.09;;;5.14;73.05
61474;BME280;53694;49.784;30.150;2023-02-18T02:31:54;98764.61;;;5.31;72.47
61474;BME280;53694;49.784;30.150;2023-02-18T02:37:33;98765.62;;;5.26;72.49
61474;BME280;53694;49.784;30.150;2023-02-18T02:40:06;98773.45;;;5.28;71.92
61474;BME280;53694;49.784;30.150;2023-02-18T02:42:45;98749.89;;;5.20;72.15
61474;BME280;53694;49.784;30.150;2023-02-18T02:46:30;98747.42;;;5.15;72.27
61474;BME280;53694;49.784;30.150;2023-02-18T02:47:43;98739.69;;;5.17;72.59
61474;BME280;53694;49.784;30.150;2023-02-18T02:48:51;98736.18;;;5.16;72.35
61474;BME280;53694;49.784;30.150;2023-02-18T02:52:36;98727.59;;;5.14;72.71
61474;BME280;53694;49.784;30.150;2023-02-18T02:53:39;98739.69;;;5.17;72.45
61474;BME280;53694;49.784;30.150;2023-02-18T02:54:42;98727.23;;;5.16;72.41
61474;BME280;53694;49.784;30.150;2023-02-18T02:55:43;98719.06;;;5.16;72.38
61474;BME280;53694;49.784;30.150;2023-02-18T02:56:45;98711.59;;;5.13;72.43
61474;BME280;53694;49.784;30.150;2023-02-18T02:57:49;98724.77;;;5.11;72.45
61474;BME280;53694;49.784;30.150;2023-02-18T02:59:03;98710.70;;;5.09;72.50
61474;BME280;53694;49.784;30.150;2023-02-18T03:00:07;98706.65;;;5.03;72.55
61474;BME280;53694;49.784;30.150;2023-02-18T03:04:03;98697.84;;;4.93;73.43
61474;BME280;53694;49.784;30.150;2023-02-18T03:06:43;98693.98;;;4.94;73.36
61474;BME280;53694;49.784;30.150;2023-02-18T03:08:08;98697.14;;;4.96;73.53
61474;BME280;53694;49.784;30.150;2023-02-18T03:10:29;98692.58;;;5.00;73.26
61474;BME280;53694;49.784;30.150;2023-02-18T03:11:32;98700.31;;;4.98;73.14
61474;BME280;53694;49.784;30.150;2023-02-18T03:14:20;98687.86;;;4.97;73.62
61474;BME280;53694;49.784;30.150;2023-02-18T03:16:58;98682.74;;;4.96;73.84
61474;BME280;53694;49.784;30.150;2023-02-18T03:18:13;98674.69;;;4.99;73.65
61474;BME280;53694;49.784;30.150;2023-02-18T03:19:24;98680.02;;;4.96;73.52
61474;BME280;53694;49.784;30.150;2023-02-18T03:20:42;98662.13;;;4.95;73.88
61474;BME280;53694;49.784;30.150;2023-02-18T03:21:58;98674.48;;;4.92;74.08
61474;BME280;53694;49.784;30.150;2023-02-18T03:23:03;98674.41;;;4.89;74.16
61474;BME280;53694;49.784;30.150;2023-02-18T03:24:11;98659.66;;;4.90;74.57
61474;BME280;53694;49.784;30.150;2023-02-18T03:25:12;98662.48;;;4.93;74.48
61474;BME280;53694;49.784;30.150;2023-02-18T03:26:16;98653.60;;;4.96;74.44
61474;BME280;53694;49.784;30.150;2023-02-18T03:27:37;98652.03;;;4.95;74.44
61474;BME280;53694;49.784;30.150;2023-02-18T03:28:39;98650.55;;;4.98;74.41
61474;BME280;53694;49.784;30.150;2023-02-18T03:29:45;98656.88;;;5.02;74.43
61474;BME280;53694;49.784;30.150;2023-02-18T03:30:50;98652.13;;;4.99;74.42
61474;BME280;53694;49.784;30.150;2023-02-18T03:31:56;98650.19;;;4.99;74.51
61474;BME280;53694;49.784;30.150;2023-02-18T03:33:02;98634.23;;;4.98;74.50
61474;BME280;53694;49.784;30.150;2023-02-18T03:34:06;98635.02;;;4.98;74.52
61474;BME280;53694;49.784;30.150;2023-02-18T03:35:12;98626.39;;;4.96;74.53
61474;BME280;53694;49.784;30.150;2023-02-18T03:36:15;98628.00;;;4.97;74.62
61474;BME280;53694;49.784;30.150;2023-02-18T03:37:19;98628.78;;;4.98;74.91
61474;BME280;53694;49.784;30.150;2023-02-18T03:39:28;98624.13;;;4.98;74.82
61474;BME280;53694;49.784;30.150;2023-02-18T03:40:31;98614.82;;;4.99;75.00
61474;BME280;53694;49.784;30.150;2023-02-18T03:41:33;98615.61;;;5.00;74.92
61474;BME280;53694;49.784;30.150;2023-02-18T03:42:35;98607.55;;;5.04;75.01
61474;BME280;53694;49.784;30.150;2023-02-18T03:43:47;98611.84;;;5.05;74.89
61474;BME280;53694;49.784;30.150;2023-02-18T03:44:44;98596.75;;;5.07;75.05
61474;BME280;53694;49.784;30.150;2023-02-18T03:45:46;98594.81;;;5.08;74.96
61474;BME280;53694;49.784;30.150;2023-02-18T03:46:48;98598.78;;;5.10;74.77
61474;BME280;53694;49.784;30.150;2023-02-18T03:47:49;98601.84;;;5.09;74.91
61474;BME280;53694;49.784;30.150;2023-02-18T03:48:51;98607.83;;;5.14;75.14
61474;BME280;53694;49.784;30.150;2023-02-18T03:49:53;98597.47;;;5.20;74.93
61474;BME280;53694;49.784;30.150;2023-02-18T03:50:54;98601.77;;;5.21;74.58
61474;BME280;53694;49.784;30.150;2023-02-18T03:51:56;98593.17;;;5.19;74.46
61474;BME280;53694;49.784;30.150;2023-02-18T03:52:57;98583.86;;;5.20;74.47
61474;BME280;53694;49.784;30.150;2023-02-18T03:53:59;98592.02;;;5.20;74.49
61474;BME280;53694;49.784;30.150;2023-02-18T03:55:02;98593.95;;;5.19;74.54
61474;BME280;53694;49.784;30.150;2023-02-18T03:56:04;98585.43;;;5.21;74.73
61474;BME280;53694;49.784;30.150;2023-02-18T03:57:06;98580.34;;;5.19;74.65
61474;BME280;53694;49.784;30.150;2023-02-18T03:58:08;98582.70;;;5.21;74.77
61474;BME280;53694;49.784;30.150;2023-02-18T03:59:10;98599.50;;;5.23;74.62
61474;BME280;53694;49.784;30.150;2023-02-18T04:00:13;98581.56;;;5.22;74.60
61474;BME280;53694;49.784;30.150;2023-02-18T04:01:14;98572.27;;;5.23;74.85
61474;BME280;53694;49.784;30.150;2023-02-18T04:02:16;98566.47;;;5.24;74.82
61474;BME280;53694;49.784;30.150;2023-02-18T04:03:18;98576.57;;;5.24;74.68
61474;BME280;53694;49.784;30.150;2023-02-18T04:04:19;98578.14;;;5.25;74.79
61474;BME280;53694;49.784;30.150;2023-02-18T04:05:21;98568.83;;;5.26;74.75
61474;BME280;53694;49.784;30.150;2023-02-18T04:06:23;98571.22;;;5.28;74.83
61474;BME280;53694;49.784;30.150;2023-02-18T04:07:25;98562.59;;;5.25;74.89
61474;BME280;53694;49.784;30.150;2023-02-18T04:08:26;98558.67;;;5.23;75.03
61474;BME280;53694;49.784;30.150;2023-02-18T04:09:28;98560.23;;;5.24;75.30
61474;BME280;53694;49.784;30.150;2023-02-18T04:10:30;98563.38;;;5.26;75.18
61474;BME280;53694;49.784;30.150;2023-02-18T04:11:31;98570.43;;;5.27;75.25
61474;BME280;53694;49.784;30.150;2023-02-18T04:12:33;98557.06;;;5.22;74.96
61474;BME280;53694;49.784;30.150;2023-02-18T04:13:35;98561.81;;;5.25;75.19
61474;BME280;53694;49.784;30.150;2023-02-18T04:14:37;98558.81;;;5.30;75.50
61474;BME280;53694;49.784;30.150;2023-02-18T04:15:38;98576.39;;;5.33;75.32
61474;BME280;53694;49.784;30.150;2023-02-18T04:16:40;98553.13;;;5.35;75.36
61474;BME280;53694;49.784;30.150;2023-02-18T04:17:42;98530.20;;;5.36;75.11
61474;BME280;53694;49.784;30.150;2023-02-18T04:18:44;98540.30;;;5.36;74.75
61474;BME280;53694;49.784;30.150;2023-02-18T04:19:45;98549.68;;;5.38;74.98
61474;BME280;53694;49.784;30.150;2023-02-18T04:20:47;98556.45;;;5.44;74.61
61474;BME280;53694;49.784;30.150;2023-02-18T04:21:48;98565.50;;;5.48;74.31
61474;BME280;53694;49.784;30.150;2023-02-18T04:22:50;98563.20;;;5.50;74.35
61474;BME280;53694;49.784;30.150;2023-02-18T04:23:52;98552.76;;;5.53;74.18
61474;BME280;53694;49.784;30.150;2023-02-18T04:24:53;98543.86;;;5.56;74.22
61474;BME280;53694;49.784;30.150;2023-02-18T04:25:55;98537.53;;;5.51;74.25
61474;BME280;53694;49.784;30.150;2023-02-18T04:26:56;98531.22;;;5.47;74.37
61474;BME280;53694;49.784;30.150;2023-02-18T04:27:58;98520.33;;;5.47;74.56
61474;BME280;53694;49.784;30.150;2023-02-18T04:28:59;98533.61;;;5.49;74.77
61474;BME280;53694;49.784;30.150;2023-02-18T04:30:02;98533.70;;;5.53;74.72
61474;BME280;53694;49.784;30.150;2023-02-18T04:31:04;98540.72;;;5.54;74.80
61474;BME280;53694;49.784;30.150;2023-02-18T04:32:05;98541.50;;;5.54;75.05
61474;BME280;53694;49.784;30.150;2023-02-18T04:33:07;98540.89;;;5.61;74.88
61474;BME280;53694;49.784;30.150;2023-02-18T04:34:08;98545.97;;;5.62;74.82
61474;BME280;53694;49.784;30.150;2023-02-18T04:35:10;98538.22;;;5.64;74.83
61474;BME280;53694;49.784;30.150;2023-02-18T04:36:12;98543.75;;;5.68;74.82
61474;BME280;53694;49.784;30.150;2023-02-18T04:37:13;98538.02;;;5.73;74.96
61474;BME280;53694;49.784;30.150;2023-02-18T04:38:15;98548.22;;;5.76;74.84
61474;BME280;53694;49.784;30.150;2023-02-18T04:39:16;98536.61;;;5.79;74.65
61474;BME280;53694;49.784;30.150;2023-02-18T04:40:18;98536.61;;;5.79;74.53
61474;BME280;53694;49.784;30.150;2023-02-18T04:41:20;98529.59;;;5.78;74.70
61474;BME280;53694;49.784;30.150;2023-02-18T04:42:22;98516.31;;;5.76;74.81
61474;BME280;53694;49.784;30.150;2023-02-18T04:43:23;98515.16;;;5.77;75.09
61474;BME280;53694;49.784;30.150;2023-02-18T04:44:25;98524.56;;;5.80;75.18
61474;BME280;53694;49.784;30.150;2023-02-18T04:45:27;98531.17;;;5.79;75.39
61474;BME280;53694;49.784;30.150;2023-02-18T04:46:29;98534.31;;;5.81;75.75
61474;BME280;53694;49.784;30.150;2023-02-18T04:47:30;98525.43;;;5.84;76.10
61474;BME280;53694;49.784;30.150;2023-02-18T04:48:32;98513.09;;;5.90;76.08
61474;BME280;53694;49.784;30.150;2023-02-18T04:49:34;98526.72;;;5.90;75.77
61474;BME280;53694;49.784;30.150;2023-02-18T04:50:35;98531.49;;;5.93;75.99
61474;BME280;53694;49.784;30.150;2023-02-18T04:51:37;98520.59;;;5.93;75.88
61474;BME280;53694;49.784;30.150;2023-02-18T04:52:38;98503.45;;;5.93;76.01
61474;BME280;53694;49.784;30.150;2023-02-18T04:53:40;98499.47;;;5.90;76.07
61474;BME280;53694;49.784;30.150;2023-02-18T04:54:43;98499.47;;;5.90;76.25
61474;BME280;53694;49.784;30.150;2023-02-18T04:55:49;98508.13;;;5.92;76.37
61474;BME280;53694;49.784;30.150;2023-02-18T04:56:51;98513.28;;;5.97;76.54
61474;BME280;53694;49.784;30.150;2023-02-18T04:57:53;98493.50;;;6.00;76.62
61474;BME280;53694;49.784;30.150;2023-02-18T04:58:54;98500.23;;;6.07;76.59
61474;BME280;53694;49.784;30.150;2023-02-18T04:59:56;98478.16;;;6.12;76.53
61474;BME280;53694;49.784;30.150;2023-02-18T05:00:59;98486.90;;;6.21;76.32
61474;BME280;53694;49.784;30.150;2023-02-18T05:02:01;98487.76;;;6.25;75.88
61474;BME280;53694;49.784;30.150;2023-02-18T05:03:03;98476.11;;;6.28;76.03
61474;BME280;53694;49.784;30.150;2023-02-18T05:04:04;98495.64;;;6.30;75.77
61474;BME280;53694;49.784;30.150;2023-02-18T05:05:06;98490.19;;;6.30;75.71
61474;BME280;53694;49.784;30.150;2023-02-18T05:06:08;98503.03;;;6.30;75.83
61474;BME280;53694;49.784;30.150;2023-02-18T05:07:09;98490.11;;;6.26;75.87
61474;BME280;53694;49.784;30.150;2023-02-18T05:08:11;98469.53;;;6.29;76.15
61474;BME280;53694;49.784;30.150;2023-02-18T05:09:13;98474.98;;;6.29;75.95
61474;BME280;53694;49.784;30.150;2023-02-18T05:10:16;98485.52;;;6.31;75.90
61474;BME280;53694;49.784;30.150;2023-02-18T05:11:18;98466.84;;;6.33;75.97
61474;BME280;53694;49.784;30.150;2023-02-18T05:12:20;98472.81;;;6.38;75.98
61474;BME280;53694;49.784;30.150;2023-02-18T05:13:21;98466.13;;;6.36;75.85
61474;BME280;53694;49.784;30.150;2023-02-18T05:14:23;98434.64;;;6.38;76.16
61474;BME280;53694;49.784;30.150;2023-02-18T05:15:25;98436.69;;;6.45;76.17
61474;BME280;53694;49.784;30.150;2023-02-18T05:16:27;98423.83;;;6.45;75.80
61474;BME280;53694;49.784;30.150;2023-02-18T05:17:28;98428.57;;;6.48;75.75
61474;BME280;53694;49.784;30.150;2023-02-18T05:18:30;98416.16;;;6.51;75.60
61474;BME280;53694;49.784;30.150;2023-02-18T05:19:31;98436.10;;;6.55;75.27
61474;BME280;53694;49.784;30.150;2023-02-18T05:20:34;98443.84;;;6.53;75.20
61474;BME280;53694;49.784;30.150;2023-02-18T05:21:35;98435.32;;;6.55;75.25
61474;BME280;53694;49.784;30.150;2023-02-18T05:22:37;98436.52;;;6.57;75.41
61474;BME280;53694;49.784;30.150;2023-02-18T05:23:39;98431.06;;;6.57;75.33
61474;BME280;53694;49.784;30.150;2023-02-18T05:24:40;98443.19;;;6.60;75.67
61474;BME280;53694;49.784;30.150;2023-02-18T05:25:42;98438.59;;;6.64;75.61
61474;BME280;53694;49.784;30.150;2023-02-18T05:26:45;98447.97;;;6.66;75.37
61474;BME280;53694;49.784;30.150;2023-02-18T05:27:47;98440.47;;;6.60;75.48
61474;BME280;53694;49.784;30.150;2023-02-18T05:28:48;98440.33;;;6.53;75.61
61474;BME280;53694;49.784;30.150;2023-02-18T05:29:50;98431.30;;;6.48;76.02
61474;BME280;53694;49.784;30.150;2023-02-18T05:30:51;98427.41;;;6.49;76.35
61474;BME280;53694;49.784;30.150;2023-02-18T05:31:53;98431.73;;;6.50;76.31
61474;BME280;53694;49.784;30.150;2023-02-18T05:32:54;98422.70;;;6.46;76.33
61474;BME280;53694;49.784;30.150;2023-02-18T05:33:56;98411.36;;;6.44;76.54
61474;BME280;53694;49.784;30.150;2023-02-18T05:34:57;98432.08;;;6.49;76.85
61474;BME280;53694;49.784;30.150;2023-02-18T05:35:59;98420.83;;;6.50;76.78
61474;BME280;53694;49.784;30.150;2023-02-18T05:37:01;98415.85;;;6.56;76.76
61474;BME280;53694;49.784;30.150;2023-02-18T05:38:02;98429.97;;;6.62;76.83
61474;BME280;53694;49.784;30.150;2023-02-18T05:39:04;98436.17;;;6.59;76.54
61474;BME280;53694;49.784;30.150;2023-02-18T05:40:06;98419.42;;;6.60;76.62
61474;BME280;53694;49.784;30.150;2023-02-18T05:41:08;98426.14;;;6.66;76.88
61474;BME280;53694;49.784;30.150;2023-02-18T05:42:10;98419.18;;;6.69;76.77
61474;BME280;53694;49.784;30.150;2023-02-18T05:43:11;98421.25;;;6.75;76.81
61474;BME280;53694;49.784;30.150;2023-02-18T05:44:13;98430.31;;;6.83;76.44
61474;BME280;53694;49.784;30.150;2023-02-18T05:45:15;98430.63;;;6.78;75.92
61474;BME280;53694;49.784;30.150;2023-02-18T05:46:17;98413.09;;;6.79;76.18
61474;BME280;53694;49.784;30.150;2023-02-18T05:47:19;98413.09;;;6.79;76.26
61474;BME280;53694;49.784;30.150;2023-02-18T05:48:20;98420.16;;;6.80;76.36
61474;BME280;53694;49.784;30.150;2023-02-18T05:49:21;98415.48;;;6.81;76.51
61474;BME280;53694;49.784;30.150;2023-02-18T05:50:23;98412.38;;;6.82;76.53
61474;BME280;53694;49.784;30.150;2023-02-18T05:51:25;98409.27;;;6.84;76.55
61474;BME280;53694;49.784;30.150;2023-02-18T05:52:26;98408.20;;;6.88;76.53
61474;BME280;53694;49.784;30.150;2023-02-18T05:53:28;98419.12;;;6.88;76.21
61474;BME280;53694;49.784;30.150;2023-02-18T05:54:30;98404.66;;;6.88;76.24
61474;BME280;53694;49.784;30.150;2023-02-18T05:55:32;98395.34;;;6.89;76.29
61474;BME280;53694;49.784;30.150;2023-02-18T05:56:33;98407.83;;;6.90;76.58
61474;BME280;53694;49.784;30.150;2023-02-18T05:57:35;98410.23;;;6.95;76.80
61474;BME280;53694;49.784;30.150;2023-02-18T05:58:36;98415.03;;;7.01;76.49
61474;BME280;53694;49.784;30.150;2023-02-18T05:59:38;98417.76;;;7.01;75.99
61474;BME280;53694;49.784;30.150;2023-02-18T06:00:39;98411.14;;;7.03;76.17
61474;BME280;53694;49.784;30.150;2023-02-18T06:01:41;98417.00;;;7.05;76.18
61474;BME280;53694;49.784;30.150;2023-02-18T06:02:43;98417.84;;;7.09;76.01
61474;BME280;53694;49.784;30.150;2023-02-18T06:03:44;98419.79;;;7.08;76.08
61474;BME280;53694;49.784;30.150;2023-02-18T06:04:46;98410.41;;;7.06;76.31
61474;BME280;53694;49.784;30.150;2023-02-18T06:05:51;98432.66;;;7.08;76.64
61474;BME280;53694;49.784;30.150;2023-02-18T06:06:53;98420.58;;;7.09;76.70
61474;BME280;53694;49.784;30.150;2023-02-18T06:07:54;98403.47;;;7.12;76.43
61474;BME280;53694;49.784;30.150;2023-02-18T06:08:56;98404.31;;;7.16;76.33
61474;BME280;53694;49.784;30.150;2023-02-18T06:09:58;98392.66;;;7.19;76.36
61474;BME280;53694;49.784;30.150;2023-02-18T06:10:59;98396.95;;;7.20;76.01
61474;BME280;53694;49.784;30.150;2023-02-18T06:12:01;98390.77;;;7.23;76.12
61474;BME280;53694;49.784;30.150;2023-02-18T06:13:03;98409.45;;;7.21;75.91
61474;BME280;53694;49.784;30.150;2023-02-18T06:14:04;98400.53;;;7.24;76.11
61474;BME280;53694;49.784;30.150;2023-02-18T06:15:06;98407.61;;;7.29;76.18
61474;BME280;53694;49.784;30.150;2023-02-18T06:16:08;98394.01;;;7.32;75.90
61474;BME280;53694;49.784;30.150;2023-02-18T06:17:13;98404.61;;;7.37;75.71